x

Middle Nomad (46004) Wave Buoy

4:00am - Sun 29th Mar 2015 All times are PDT. -7 hours from GMT.

  • Sig Wave height 14.1ft
  • Peak Period 12s
  • Wind
    22mph, 31mph gusts
  • Sea Temp 49°f
  • Air Temp 48°f
  • Sea Pressure 1008.9mb
  • Middle Nomad
  • Middle Nomad

More Historic Weather Station data

Upgrade to MSW Pro to gain access to the past 30 days of data for over 8000 Wavebouys and Weather Stations around the globe.

Join Pro

Comparision Forecast

View Surf forecast
   
Sun 03/29 4:00am 14ft 12s 22 31 mph 1008.9mb 49f 48f
3:00am 13ft 10s 22 29 mph 1008.6mb 49f 48f
1:00am 12ft 11s 25 29 mph 1006.7mb 49f 48f
12:00am 12ft 11s 25 31 mph 1005.8mb 49f 49f
Sat 03/28 11:00pm 11ft 10s 25 36 mph 1005.1mb 49f 48f
10:00pm 12ft 11s 22 27 mph 1004.9mb 49f 48f
9:00pm 12ft 10s 22 27 mph 1004.7mb 49f 47f
8:00pm 11.5ft 11s 22 27 mph 1004.2mb 49f 50f
7:00pm 10.5ft 11s 20 25 mph 1004.2mb 49f 50f
6:00pm 11ft 11s 20 25 mph 1004.1mb 49f 50f
5:00pm 10ft 11s 20 27 mph 1004mb 49f 50f
4:00pm 12ft 11s 20 27 mph 1004.1mb 49f 50f
3:00pm 11.5ft 11s 22 25 mph 1004mb 49f 50f
2:00pm 12ft 10s 22 29 mph 1004mb 49f 50f
1:00pm 11ft 11s 22 27 mph 1003.4mb 49f 50f
12:00pm 12ft 11s 20 27 mph 1002.6mb 49f 50f
11:00am 13ft 11s 20 27 mph 1001.5mb 49f 50f
10:00am 12ft 11s 25 29 mph 1000.7mb 49f 49f
9:00am 12ft 10s 18 22 mph 1000.2mb 49f 49f
8:00am 11ft 10s 18 22 mph 999.8mb 49f 49f
7:00am 13ft 10s 18 22 mph 999.8mb 49f 49f
6:00am 12.5ft 8s 25 29 mph 999.6mb 49f 50f
5:00am 11ft 8s 25 31 mph 1000mb 49f 50f
4:00am 12ft 7s 25 29 mph 1001.3mb 49f 50f
3:00am 10.5ft 7s 27 31 mph 1002.5mb 49f 49f
2:00am 11ft 7s 29 36 mph 1003.7mb 49f 48f
1:00am 9.5ft 10s 31 36 mph 1005.3mb 49f 47f
12:00am 9ft 10s 29 36 mph 1006.9mb 49f 48f
Fri 03/27 11:00pm 8ft 11s 27 36 mph 1008.5mb 49f 48f
10:00pm 8ft 11s 25 29 mph 1009.5mb 49f 49f
9:00pm 7.5ft 10s 22 27 mph 1010.4mb 49f 49f
8:00pm 8ft 10s 18 22 mph 1010.9mb 49f 49f
7:00pm 7ft 10s 18 20 mph 1011.7mb 49f 48f
6:00pm 7.5ft 11s 16 18 mph 1012.3mb 49f 48f
5:00pm 8ft 11s 11 16 mph 1013.1mb 50f 48f
4:00pm 8ft 12s 9 13 mph 1013.4mb 50f 48f
3:00pm 8ft 10s 9 13 mph 1014.1mb 50f 48f
2:00pm 8.5ft 11s 7 9 mph 1014.1mb 50f 48f
1:00pm 8.5ft 12s 4 7 mph 1014.5mb 49f 48f
12:00pm 9ft 11s 7 9 mph 1014.8mb 49f 48f
11:00am 9ft 11s 4 7 mph 1014.7mb 49f 48f
10:00am 9ft 12s 2 4 mph 1014.4mb 49f 49f
9:00am 10ft 10s 2 4 mph 1014.5mb 49f 48f
8:00am 9.5ft 11s 2 4 mph 1014.4mb 48f 47f
7:00am 10ft 11s 2 4 mph 1014.4mb 48f 47f
6:00am 10ft 11s 2 4 mph 1014.6mb 49f 47f
5:00am 10.5ft 12s 2 4 mph 1014.7mb 49f 47f
4:00am 10.5ft 12s 2 4 mph 1015mb 49f 47f
3:00am 9.5ft 11s 2 4 mph 1015.3mb 49f 47f
2:00am 10.5ft 12s 4 7 mph 1015.5mb 49f 48f
1:00am 10ft 13s 4 7 mph 1015.6mb 49f 48f
12:00am 10ft 12s 4 7 mph 1015.6mb 49f 48f
Thu 03/26 11:00pm 10.5ft 12s 4 9 mph 1015.5mb 49f 48f
10:00pm 10.5ft 12s 4 9 mph 1015.4mb 49f 48f
9:00pm 11.5ft 13s 4 9 mph 1015.1mb 49f 48f
8:00pm 11ft 14s 7 9 mph 1014.7mb 49f 49f
7:00pm 12ft 12s 7 9 mph 1014.5mb 49f 49f
6:00pm 12ft 12s 7 9 mph 1014.5mb 49f 49f
5:00pm 12ft 12s 9 11 mph 1014.6mb 49f 49f
4:00pm 11ft 12s 11 13 mph 1014.3mb 49f 49f
3:00pm 10.5ft 10s 11 16 mph 1014.3mb 49f 49f
2:00pm 10ft 11s 9 13 mph 1014.5mb 49f 49f
1:00pm 11.5ft 12s 11 13 mph 1014.4mb 49f 49f
12:00pm 10ft 11s 9 11 mph 1014.3mb 49f 49f
11:00am 11.5ft 12s 9 11 mph 1013.9mb 49f 49f
10:00am 11.5ft 11s 11 13 mph 1013.6mb 49f 49f
9:00am 12.5ft 12s 9 13 mph 1012.9mb 49f 49f
8:00am 11ft 11s 11 13 mph 1012.4mb 49f 49f
7:00am 11ft 12s 11 16 mph 1011.9mb 49f 49f
6:00am 12ft 12s 13 18 mph 1011.4mb 49f 49f
5:00am 13ft 12s 16 18 mph 1010.9mb 49f 49f
4:00am 11.5ft 12s 16 20 mph 1010.4mb 49f 49f
3:00am 10.5ft 10s 16 20 mph 1010.1mb 49f 49f
2:00am 12ft 11s 18 22 mph 1009.4mb 49f 50f
1:00am 13ft 11s 18 22 mph 1008.7mb 49f 50f
12:00am 13ft 11s 20 27 mph 1008.1mb 49f 50f
Wed 03/25 11:00pm 12ft 11s 22 27 mph 1007.6mb 49f 50f
10:00pm 12.5ft 11s 22 29 mph 1007.4mb 49f 50f
9:00pm 10.5ft 10s 20 25 mph 1006.7mb 49f 50f
8:00pm 10.5ft 10s 22 27 mph 1006.6mb 49f 50f
7:00pm 10ft 11s 20 25 mph 1006.2mb 49f 50f
6:00pm 9ft 10s 20 25 mph 1006.2mb 49f 50f
5:00pm 9ft 11s 20 25 mph 1006.2mb 49f 50f
4:00pm 8.5ft 11s 20 25 mph 1006.3mb 49f 50f
3:00pm 8ft 11s 18 22 mph 1005.7mb 49f 50f
2:00pm 8.5ft 11s 20 22 mph 1005.7mb 49f 50f
1:00pm 9ft 10s 18 20 mph 1005.3mb 49f 50f